Terminal Aerodrome Forecast
Issued by NWS King Salmon, AK

Home | Current Version | Previous Version | Text Only | Print | Product List | Glossary On
Versions: 1 2 3 4 5 6 7 8 9 10 11 12 13 14 15
000
FTAK31 PANC 161740
TAFAKN
TAF
PAKN 161740Z 1618/1718 34009KT P6SM FEW002 SCT045
     FM162100 35010KT 4SM -SN BKN025 OVC035
     FM170500 36008KT P6SM -SNRA BKN015 OVC030
      TEMPO 1705/1709 6SM -FZRA=

USA.gov is the U.S. government's official web portal to all federal, state and local government web resources and services.